sensor_id;sensor_type;location;lat;lon;timestamp;pressure;altitude;pressure_sealevel;temperature;humidity
21401;BME280;18038;50.166;18.908;2022-09-09T00:00:49;97681.41;;;15.22;80.23
21401;BME280;18038;50.166;18.908;2022-09-09T00:04:05;97683.88;;;15.23;79.80
21401;BME280;18038;50.166;18.908;2022-09-09T00:07:36;97687.63;;;15.11;80.11
21401;BME280;18038;50.166;18.908;2022-09-09T00:10:54;97692.53;;;15.02;80.10
21401;BME280;18038;50.166;18.908;2022-09-09T00:14:17;97691.81;;;14.95;80.23
21401;BME280;18038;50.166;18.908;2022-09-09T00:17:36;97674.84;;;14.83;80.31
21401;BME280;18038;50.166;18.908;2022-09-09T00:20:54;97688.75;;;14.79;80.80
21401;BME280;18038;50.166;18.908;2022-09-09T00:24:23;97685.66;;;14.76;81.07
21401;BME280;18038;50.166;18.908;2022-09-09T00:27:40;97702.38;;;14.78;80.68
21401;BME280;18038;50.166;18.908;2022-09-09T00:30:49;97695.38;;;14.77;80.31
21401;BME280;18038;50.166;18.908;2022-09-09T00:34:03;97689.78;;;14.48;81.77
21401;BME280;18038;50.166;18.908;2022-09-09T00:37:19;97691.94;;;14.58;81.57
21401;BME280;18038;50.166;18.908;2022-09-09T00:40:33;97689.84;;;14.60;80.82
21401;BME280;18038;50.166;18.908;2022-09-09T00:43:41;97690.53;;;14.67;80.82
21401;BME280;18038;50.166;18.908;2022-09-09T00:46:59;97696.50;;;14.69;80.42
21401;BME280;18038;50.166;18.908;2022-09-09T00:50:29;97696.16;;;14.66;79.99
21401;BME280;18038;50.166;18.908;2022-09-09T00:54:05;97709.88;;;14.46;80.85
21401;BME280;18038;50.166;18.908;2022-09-09T00:57:39;97709.19;;;14.50;80.87
21401;BME280;18038;50.166;18.908;2022-09-09T01:00:49;97707.78;;;14.48;80.47
21401;BME280;18038;50.166;18.908;2022-09-09T01:03:58;97712.38;;;14.29;81.27
21401;BME280;18038;50.166;18.908;2022-09-09T01:07:16;97714.13;;;14.23;81.84
21401;BME280;18038;50.166;18.908;2022-09-09T01:10:33;97717.13;;;14.15;81.94
21401;BME280;18038;50.166;18.908;2022-09-09T01:13:56;97723.16;;;14.10;82.35
21401;BME280;18038;50.166;18.908;2022-09-09T01:17:16;97721.13;;;14.06;82.48
21401;BME280;18038;50.166;18.908;2022-09-09T01:20:44;97724.44;;;14.08;82.32
21401;BME280;18038;50.166;18.908;2022-09-09T01:24:15;97728.00;;;14.02;82.67
21401;BME280;18038;50.166;18.908;2022-09-09T01:27:56;97731.66;;;14.07;82.78
21401;BME280;18038;50.166;18.908;2022-09-09T01:31:11;97731.72;;;14.19;81.96
21401;BME280;18038;50.166;18.908;2022-09-09T01:34:23;97733.63;;;14.30;81.90
21401;BME280;18038;50.166;18.908;2022-09-09T01:37:31;97731.47;;;14.39;80.98
21401;BME280;18038;50.166;18.908;2022-09-09T01:40:37;97732.69;;;14.25;81.05
21401;BME280;18038;50.166;18.908;2022-09-09T01:43:47;97733.13;;;14.22;80.66
21401;BME280;18038;50.166;18.908;2022-09-09T01:46:54;97729.19;;;14.24;80.87
21401;BME280;18038;50.166;18.908;2022-09-09T01:50:01;97744.84;;;14.27;80.61
21401;BME280;18038;50.166;18.908;2022-09-09T01:53:08;97742.75;;;14.29;80.77
21401;BME280;18038;50.166;18.908;2022-09-09T01:56:33;97737.31;;;14.36;80.59
21401;BME280;18038;50.166;18.908;2022-09-09T02:00:00;97741.34;;;14.27;80.33
21401;BME280;18038;50.166;18.908;2022-09-09T02:03:23;97729.63;;;14.21;80.25
21401;BME280;18038;50.166;18.908;2022-09-09T02:06:45;97737.50;;;14.04;81.36
21401;BME280;18038;50.166;18.908;2022-09-09T02:10:10;97743.69;;;14.05;81.21
21401;BME280;18038;50.166;18.908;2022-09-09T02:13:37;97744.84;;;13.90;81.56
21401;BME280;18038;50.166;18.908;2022-09-09T02:16:54;97742.56;;;13.94;81.05
21401;BME280;18038;50.166;18.908;2022-09-09T02:20:26;97750.75;;;13.81;81.67
21401;BME280;18038;50.166;18.908;2022-09-09T02:23:39;97745.59;;;13.79;82.08
21401;BME280;18038;50.166;18.908;2022-09-09T02:26:53;97749.84;;;13.87;81.54
21401;BME280;18038;50.166;18.908;2022-09-09T02:30:16;97754.88;;;13.83;81.12
21401;BME280;18038;50.166;18.908;2022-09-09T02:33:37;97761.41;;;13.87;80.96
21401;BME280;18038;50.166;18.908;2022-09-09T02:36:53;97762.03;;;13.89;80.90
21401;BME280;18038;50.166;18.908;2022-09-09T02:40:12;97761.41;;;13.87;80.48
21401;BME280;18038;50.166;18.908;2022-09-09T02:43:31;97769.03;;;13.90;80.33
21401;BME280;18038;50.166;18.908;2022-09-09T02:47:03;97763.44;;;13.92;80.41
21401;BME280;18038;50.166;18.908;2022-09-09T02:50:33;97762.63;;;13.91;79.78
21401;BME280;18038;50.166;18.908;2022-09-09T02:53:49;97775.50;;;13.83;79.92
21401;BME280;18038;50.166;18.908;2022-09-09T02:57:08;97763.06;;;13.63;81.12
21401;BME280;18038;50.166;18.908;2022-09-09T03:00:24;97776.72;;;13.62;80.77
21401;BME280;18038;50.166;18.908;2022-09-09T03:03:37;97783.56;;;13.58;80.98
21401;BME280;18038;50.166;18.908;2022-09-09T03:06:52;97784.91;;;13.48;81.18
21401;BME280;18038;50.166;18.908;2022-09-09T03:10:08;97786.28;;;13.33;81.93
21401;BME280;18038;50.166;18.908;2022-09-09T03:13:15;97774.38;;;13.22;82.10
21401;BME280;18038;50.166;18.908;2022-09-09T03:16:21;97778.53;;;13.18;82.21
21401;BME280;18038;50.166;18.908;2022-09-09T03:19:29;97786.84;;;13.10;83.01
21401;BME280;18038;50.166;18.908;2022-09-09T03:22:37;97785.19;;;13.09;83.10
21401;BME280;18038;50.166;18.908;2022-09-09T03:25:46;97789.81;;;13.01;83.44
21401;BME280;18038;50.166;18.908;2022-09-09T03:29:01;97792.22;;;13.10;82.65
21401;BME280;18038;50.166;18.908;2022-09-09T03:32:09;97798.03;;;13.07;82.66
21401;BME280;18038;50.166;18.908;2022-09-09T03:35:15;97791.94;;;13.18;82.02
21401;BME280;18038;50.166;18.908;2022-09-09T03:38:25;97793.75;;;13.24;81.62
21401;BME280;18038;50.166;18.908;2022-09-09T03:41:31;97799.91;;;13.31;81.25
21401;BME280;18038;50.166;18.908;2022-09-09T03:44:37;97802.94;;;13.35;81.40
21401;BME280;18038;50.166;18.908;2022-09-09T03:47:51;97800.50;;;13.33;81.07
21401;BME280;18038;50.166;18.908;2022-09-09T03:51:00;97802.41;;;13.26;81.27
21401;BME280;18038;50.166;18.908;2022-09-09T03:54:11;97807.16;;;13.24;81.53
21401;BME280;18038;50.166;18.908;2022-09-09T03:57:17;97803.22;;;13.26;81.51
21401;BME280;18038;50.166;18.908;2022-09-09T04:00:23;97809.00;;;13.30;81.10
21401;BME280;18038;50.166;18.908;2022-09-09T04:03:33;97812.25;;;13.32;80.37
21401;BME280;18038;50.166;18.908;2022-09-09T04:06:39;97807.72;;;13.33;80.47
21401;BME280;18038;50.166;18.908;2022-09-09T04:09:47;97812.25;;;13.07;81.23
21401;BME280;18038;50.166;18.908;2022-09-09T04:12:58;97824.47;;;12.96;81.75
21401;BME280;18038;50.166;18.908;2022-09-09T04:16:07;97816.03;;;12.93;82.11
21401;BME280;18038;50.166;18.908;2022-09-09T04:19:17;97808.91;;;12.80;82.14
21401;BME280;18038;50.166;18.908;2022-09-09T04:22:28;97810.75;;;12.79;82.32
21401;BME280;18038;50.166;18.908;2022-09-09T04:25:37;97813.84;;;12.76;82.45
21401;BME280;18038;50.166;18.908;2022-09-09T04:28:44;97815.03;;;12.87;81.79
21401;BME280;18038;50.166;18.908;2022-09-09T04:31:53;97806.41;;;12.85;82.08
21401;BME280;18038;50.166;18.908;2022-09-09T04:34:59;97813.75;;;12.96;81.54
21401;BME280;18038;50.166;18.908;2022-09-09T04:38:05;97818.31;;;12.96;81.45
21401;BME280;18038;50.166;18.908;2022-09-09T04:41:15;97819.81;;;12.85;82.33
21401;BME280;18038;50.166;18.908;2022-09-09T04:44:24;97822.75;;;12.70;82.98
21401;BME280;18038;50.166;18.908;2022-09-09T04:47:30;97823.13;;;12.80;81.90
21401;BME280;18038;50.166;18.908;2022-09-09T04:50:37;97829.41;;;12.99;81.60
21401;BME280;18038;50.166;18.908;2022-09-09T04:53:46;97817.38;;;13.09;81.22
21401;BME280;18038;50.166;18.908;2022-09-09T04:56:56;97823.06;;;12.87;81.74
21401;BME280;18038;50.166;18.908;2022-09-09T05:00:03;97827.66;;;12.80;82.11
21401;BME280;18038;50.166;18.908;2022-09-09T05:03:13;97823.97;;;13.06;81.40
21401;BME280;18038;50.166;18.908;2022-09-09T05:06:21;97822.94;;;13.39;80.66
21401;BME280;18038;50.166;18.908;2022-09-09T05:09:32;97834.19;;;13.54;79.86
21401;BME280;18038;50.166;18.908;2022-09-09T05:12:41;97840.47;;;13.66;80.12
21401;BME280;18038;50.166;18.908;2022-09-09T05:15:51;97834.19;;;13.79;79.99
21401;BME280;18038;50.166;18.908;2022-09-09T05:18:57;97835.81;;;14.24;77.90
21401;BME280;18038;50.166;18.908;2022-09-09T05:22:19;97846.31;;;14.44;77.07
21401;BME280;18038;50.166;18.908;2022-09-09T05:25:27;97850.16;;;14.36;77.53
21401;BME280;18038;50.166;18.908;2022-09-09T05:28:36;97856.41;;;14.30;77.14
21401;BME280;18038;50.166;18.908;2022-09-09T05:31:42;97856.03;;;14.26;77.24
21401;BME280;18038;50.166;18.908;2022-09-09T05:34:50;97850.44;;;14.46;76.69
21401;BME280;18038;50.166;18.908;2022-09-09T05:37:59;97852.91;;;14.29;76.83
21401;BME280;18038;50.166;18.908;2022-09-09T05:41:05;97847.00;;;14.21;77.11
21401;BME280;18038;50.166;18.908;2022-09-09T05:44:15;97850.81;;;14.50;76.26
21401;BME280;18038;50.166;18.908;2022-09-09T05:47:21;97846.31;;;14.44;76.33
21401;BME280;18038;50.166;18.908;2022-09-09T05:50:30;97840.34;;;14.60;76.57
21401;BME280;18038;50.166;18.908;2022-09-09T05:53:36;97851.53;;;15.78;73.14
21401;BME280;18038;50.166;18.908;2022-09-09T05:56:42;97858.91;;;16.82;68.73
21401;BME280;18038;50.166;18.908;2022-09-09T05:59:55;97848.56;;;17.81;65.24
21401;BME280;18038;50.166;18.908;2022-09-09T06:03:01;97849.28;;;18.49;63.36
21401;BME280;18038;50.166;18.908;2022-09-09T06:06:10;97846.94;;;19.29;59.65
21401;BME280;18038;50.166;18.908;2022-09-09T06:09:17;97854.94;;;19.46;58.70
21401;BME280;18038;50.166;18.908;2022-09-09T06:12:25;97850.59;;;19.77;57.73
21401;BME280;18038;50.166;18.908;2022-09-09T06:15:33;97852.25;;;20.11;55.45
21401;BME280;18038;50.166;18.908;2022-09-09T06:18:40;97849.88;;;20.77;53.88
21401;BME280;18038;50.166;18.908;2022-09-09T06:21:47;97850.03;;;21.39;52.02
21401;BME280;18038;50.166;18.908;2022-09-09T06:24:53;97865.84;;;21.83;51.56
21401;BME280;18038;50.166;18.908;2022-09-09T06:27:59;97858.72;;;22.38;49.47
21401;BME280;18038;50.166;18.908;2022-09-09T06:31:09;97859.50;;;23.14;47.38
21401;BME280;18038;50.166;18.908;2022-09-09T06:34:16;97861.53;;;23.37;45.77
21401;BME280;18038;50.166;18.908;2022-09-09T06:37:27;97858.09;;;23.21;46.36
21401;BME280;18038;50.166;18.908;2022-09-09T06:40:33;97855.84;;;23.34;45.88
21401;BME280;18038;50.166;18.908;2022-09-09T06:43:39;97853.63;;;22.96;46.10
21401;BME280;18038;50.166;18.908;2022-09-09T06:46:49;97859.09;;;22.91;46.42
21401;BME280;18038;50.166;18.908;2022-09-09T06:49:55;97863.78;;;23.25;46.40
21401;BME280;18038;50.166;18.908;2022-09-09T06:53:01;97861.28;;;23.39;45.20
21401;BME280;18038;50.166;18.908;2022-09-09T06:56:19;97854.97;;;23.38;45.86
21401;BME280;18038;50.166;18.908;2022-09-09T06:59:28;97858.41;;;23.93;44.29
21401;BME280;18038;50.166;18.908;2022-09-09T07:02:37;97859.25;;;24.23;43.27
21401;BME280;18038;50.166;18.908;2022-09-09T07:05:54;97854.78;;;24.03;43.35
21401;BME280;18038;50.166;18.908;2022-09-09T07:09:04;97859.38;;;24.61;41.86
21401;BME280;18038;50.166;18.908;2022-09-09T07:12:14;97851.88;;;24.72;42.26
21401;BME280;18038;50.166;18.908;2022-09-09T07:15:30;97849.91;;;24.29;42.13
21401;BME280;18038;50.166;18.908;2022-09-09T07:18:43;97852.16;;;24.70;42.25
21401;BME280;18038;50.166;18.908;2022-09-09T07:21:49;97850.47;;;24.74;41.75
21401;BME280;18038;50.166;18.908;2022-09-09T07:24:57;97848.47;;;25.42;40.42
21401;BME280;18038;50.166;18.908;2022-09-09T07:28:04;97844.34;;;25.06;39.91
21401;BME280;18038;50.166;18.908;2022-09-09T07:31:14;97848.28;;;24.76;40.92
21401;BME280;18038;50.166;18.908;2022-09-09T07:34:25;97857.19;;;24.63;41.57
21401;BME280;18038;50.166;18.908;2022-09-09T07:37:32;97852.69;;;25.15;39.90
21401;BME280;18038;50.166;18.908;2022-09-09T07:40:43;97848.72;;;25.26;41.75
21401;BME280;18038;50.166;18.908;2022-09-09T07:43:50;97857.72;;;25.27;42.45
21401;BME280;18038;50.166;18.908;2022-09-09T07:46:57;97862.88;;;25.28;41.82
21401;BME280;18038;50.166;18.908;2022-09-09T07:50:17;97867.38;;;24.81;43.48
21401;BME280;18038;50.166;18.908;2022-09-09T07:53:23;97860.13;;;25.85;39.29
21401;BME280;18038;50.166;18.908;2022-09-09T07:56:30;97869.69;;;26.62;37.75
21401;BME280;18038;50.166;18.908;2022-09-09T07:59:36;97870.66;;;25.92;37.09
21401;BME280;18038;50.166;18.908;2022-09-09T08:02:43;97879.44;;;25.75;38.52
21401;BME280;18038;50.166;18.908;2022-09-09T08:05:52;97861.56;;;26.57;36.05
21401;BME280;18038;50.166;18.908;2022-09-09T08:08:59;97864.69;;;27.06;35.84
21401;BME280;18038;50.166;18.908;2022-09-09T08:12:11;97858.56;;;26.58;36.24
21401;BME280;18038;50.166;18.908;2022-09-09T08:15:16;97876.88;;;25.46;38.56
21401;BME280;18038;50.166;18.908;2022-09-09T08:18:22;97875.41;;;24.68;40.05
21401;BME280;18038;50.166;18.908;2022-09-09T08:21:32;97873.00;;;25.09;40.48
21401;BME280;18038;50.166;18.908;2022-09-09T08:24:39;97873.34;;;24.78;41.49
21401;BME280;18038;50.166;18.908;2022-09-09T08:27:45;97875.25;;;24.01;43.47
21401;BME280;18038;50.166;18.908;2022-09-09T08:30:51;97875.50;;;24.87;40.55
21401;BME280;18038;50.166;18.908;2022-09-09T08:34:00;97876.94;;;25.41;39.50
21401;BME280;18038;50.166;18.908;2022-09-09T08:37:10;97878.50;;;25.47;38.98
21401;BME280;18038;50.166;18.908;2022-09-09T08:40:25;97878.72;;;25.51;38.82
21401;BME280;18038;50.166;18.908;2022-09-09T08:43:36;97882.13;;;25.94;37.74
21401;BME280;18038;50.166;18.908;2022-09-09T08:46:55;97878.78;;;25.97;37.33
21401;BME280;18038;50.166;18.908;2022-09-09T08:50:23;97878.00;;;25.02;38.17
21401;BME280;18038;50.166;18.908;2022-09-09T08:53:43;97879.44;;;25.37;39.02
21401;BME280;18038;50.166;18.908;2022-09-09T08:57:13;97881.06;;;25.38;40.76
21401;BME280;18038;50.166;18.908;2022-09-09T09:00:34;97873.63;;;25.96;37.83
21401;BME280;18038;50.166;18.908;2022-09-09T09:03:55;97876.13;;;25.59;38.37
21401;BME280;18038;50.166;18.908;2022-09-09T09:07:32;97888.13;;;24.29;39.42
21401;BME280;18038;50.166;18.908;2022-09-09T09:10:50;97883.69;;;24.33;40.37
21401;BME280;18038;50.166;18.908;2022-09-09T09:14:04;97875.31;;;24.25;40.21
21401;BME280;18038;50.166;18.908;2022-09-09T09:17:19;97875.16;;;22.87;43.06
21401;BME280;18038;50.166;18.908;2022-09-09T09:20:37;97867.44;;;23.10;43.51
21401;BME280;18038;50.166;18.908;2022-09-09T09:23:57;97875.06;;;23.58;41.87
21401;BME280;18038;50.166;18.908;2022-09-09T09:27:13;97870.97;;;23.60;42.22
21401;BME280;18038;50.166;18.908;2022-09-09T09:30:28;97871.56;;;23.86;42.45
21401;BME280;18038;50.166;18.908;2022-09-09T09:33:48;97867.09;;;25.21;39.42
21401;BME280;18038;50.166;18.908;2022-09-09T09:37:00;97859.25;;;25.14;38.02
21401;BME280;18038;50.166;18.908;2022-09-09T09:40:15;97863.44;;;24.63;39.33
21401;BME280;18038;50.166;18.908;2022-09-09T09:43:28;97860.31;;;25.18;38.81
21401;BME280;18038;50.166;18.908;2022-09-09T09:46:39;97864.19;;;24.69;39.37
21401;BME280;18038;50.166;18.908;2022-09-09T09:49:54;97868.59;;;24.41;39.46
21401;BME280;18038;50.166;18.908;2022-09-09T09:53:17;97874.25;;;24.50;39.85
21401;BME280;18038;50.166;18.908;2022-09-09T09:56:28;97868.97;;;24.34;38.58
21401;BME280;18038;50.166;18.908;2022-09-09T09:59:41;97869.13;;;24.43;40.27
21401;BME280;18038;50.166;18.908;2022-09-09T10:02:55;97866.22;;;24.34;38.59
21401;BME280;18038;50.166;18.908;2022-09-09T10:06:05;97873.94;;;23.93;39.59
21401;BME280;18038;50.166;18.908;2022-09-09T10:09:23;97874.53;;;23.90;39.61
21401;BME280;18038;50.166;18.908;2022-09-09T10:12:43;97873.41;;;23.57;40.81
21401;BME280;18038;50.166;18.908;2022-09-09T10:16:29;97875.94;;;24.46;39.88
21401;BME280;18038;50.166;18.908;2022-09-09T10:19:58;97879.34;;;25.23;38.87
21401;BME280;18038;50.166;18.908;2022-09-09T10:23:45;97895.56;;;25.58;37.11
21401;BME280;18038;50.166;18.908;2022-09-09T10:27:13;97894.75;;;25.57;37.10
21401;BME280;18038;50.166;18.908;2022-09-09T10:30:36;97898.72;;;25.27;37.19
21401;BME280;18038;50.166;18.908;2022-09-09T10:34:06;97899.91;;;24.97;38.62
21401;BME280;18038;50.166;18.908;2022-09-09T10:37:41;97899.81;;;24.59;37.49
21401;BME280;18038;50.166;18.908;2022-09-09T10:41:13;97882.94;;;25.94;35.08
21401;BME280;18038;50.166;18.908;2022-09-09T10:44:36;97901.34;;;26.54;34.81
21401;BME280;18038;50.166;18.908;2022-09-09T10:48:12;97893.66;;;26.70;32.58
21401;BME280;18038;50.166;18.908;2022-09-09T10:51:54;97891.69;;;27.26;32.98
21401;BME280;18038;50.166;18.908;2022-09-09T10:55:14;97889.19;;;27.02;32.25
21401;BME280;18038;50.166;18.908;2022-09-09T10:58:35;97893.63;;;27.12;32.13
21401;BME280;18038;50.166;18.908;2022-09-09T11:01:53;97891.81;;;27.07;29.91
21401;BME280;18038;50.166;18.908;2022-09-09T11:05:14;97889.69;;;26.90;30.71
21401;BME280;18038;50.166;18.908;2022-09-09T11:08:29;97888.72;;;26.26;32.15
21401;BME280;18038;50.166;18.908;2022-09-09T11:11:44;97894.81;;;26.23;31.64
21401;BME280;18038;50.166;18.908;2022-09-09T11:15:03;97894.69;;;26.88;31.71
21401;BME280;18038;50.166;18.908;2022-09-09T11:18:19;97899.38;;;27.74;30.79
21401;BME280;18038;50.166;18.908;2022-09-09T11:21:30;97891.22;;;26.69;32.83
21401;BME280;18038;50.166;18.908;2022-09-09T11:24:47;97897.81;;;25.88;33.91
21401;BME280;18038;50.166;18.908;2022-09-09T11:28:11;97903.22;;;25.93;33.75
21401;BME280;18038;50.166;18.908;2022-09-09T11:31:43;97891.97;;;26.28;33.29
21401;BME280;18038;50.166;18.908;2022-09-09T11:35:01;97896.22;;;26.20;33.50
21401;BME280;18038;50.166;18.908;2022-09-09T11:38:27;97903.38;;;26.49;32.84
21401;BME280;18038;50.166;18.908;2022-09-09T11:41:37;97912.50;;;27.13;29.69
21401;BME280;18038;50.166;18.908;2022-09-09T11:44:44;97896.50;;;27.07;30.98
21401;BME280;18038;50.166;18.908;2022-09-09T11:47:56;97886.25;;;26.85;29.94
21401;BME280;18038;50.166;18.908;2022-09-09T11:51:09;97891.44;;;26.86;28.14
21401;BME280;18038;50.166;18.908;2022-09-09T11:54:30;97891.50;;;27.22;28.74
21401;BME280;18038;50.166;18.908;2022-09-09T11:57:44;97892.16;;;27.42;28.77
21401;BME280;18038;50.166;18.908;2022-09-09T12:00:50;97897.84;;;27.45;29.30
21401;BME280;18038;50.166;18.908;2022-09-09T12:04:14;97895.75;;;27.15;30.12
21401;BME280;18038;50.166;18.908;2022-09-09T12:07:45;97893.16;;;26.68;30.82
21401;BME280;18038;50.166;18.908;2022-09-09T12:10:59;97892.84;;;26.84;32.14
21401;BME280;18038;50.166;18.908;2022-09-09T12:14:19;97892.22;;;27.00;30.37
21401;BME280;18038;50.166;18.908;2022-09-09T12:17:29;97901.75;;;26.62;29.84
21401;BME280;18038;50.166;18.908;2022-09-09T12:20:37;97898.03;;;26.11;31.30
21401;BME280;18038;50.166;18.908;2022-09-09T12:23:52;97902.84;;;26.33;30.93
21401;BME280;18038;50.166;18.908;2022-09-09T12:27:11;97905.22;;;26.21;30.79
21401;BME280;18038;50.166;18.908;2022-09-09T12:30:32;97901.94;;;26.51;30.94
21401;BME280;18038;50.166;18.908;2022-09-09T12:33:44;97902.94;;;26.55;29.49
21401;BME280;18038;50.166;18.908;2022-09-09T12:36:57;97908.38;;;26.14;30.56
21401;BME280;18038;50.166;18.908;2022-09-09T12:40:20;97902.94;;;26.28;30.22
21401;BME280;18038;50.166;18.908;2022-09-09T12:43:28;97900.97;;;26.14;31.14
21401;BME280;18038;50.166;18.908;2022-09-09T12:46:42;97902.56;;;25.83;32.34
21401;BME280;18038;50.166;18.908;2022-09-09T12:49:51;97896.56;;;25.81;33.27
21401;BME280;18038;50.166;18.908;2022-09-09T12:53:02;97909.06;;;25.68;33.40
21401;BME280;18038;50.166;18.908;2022-09-09T12:56:24;97907.53;;;25.62;33.80
21401;BME280;18038;50.166;18.908;2022-09-09T12:59:37;97894.66;;;25.81;33.66
21401;BME280;18038;50.166;18.908;2022-09-09T13:02:52;97894.34;;;25.26;32.75
21401;BME280;18038;50.166;18.908;2022-09-09T13:06:12;97891.53;;;25.31;32.41
21401;BME280;18038;50.166;18.908;2022-09-09T13:09:30;97890.19;;;24.91;33.64
21401;BME280;18038;50.166;18.908;2022-09-09T13:12:38;97888.34;;;24.33;35.16
21401;BME280;18038;50.166;18.908;2022-09-09T13:15:50;97876.41;;;23.94;34.38
21401;BME280;18038;50.166;18.908;2022-09-09T13:19:06;97878.56;;;23.19;35.06
21401;BME280;18038;50.166;18.908;2022-09-09T13:22:21;97875.91;;;23.48;35.44
21401;BME280;18038;50.166;18.908;2022-09-09T13:25:32;97868.78;;;23.62;35.42
21401;BME280;18038;50.166;18.908;2022-09-09T13:28:46;97871.16;;;23.69;35.77
21401;BME280;18038;50.166;18.908;2022-09-09T13:31:53;97862.56;;;23.51;35.43
21401;BME280;18038;50.166;18.908;2022-09-09T13:35:02;97860.63;;;23.57;36.98
21401;BME280;18038;50.166;18.908;2022-09-09T13:38:09;97861.66;;;23.61;35.86
21401;BME280;18038;50.166;18.908;2022-09-09T13:41:20;97859.00;;;23.51;35.26
21401;BME280;18038;50.166;18.908;2022-09-09T13:44:34;97849.38;;;23.64;36.13
21401;BME280;18038;50.166;18.908;2022-09-09T13:47:43;97847.69;;;23.73;36.97
21401;BME280;18038;50.166;18.908;2022-09-09T13:51:01;97845.03;;;23.63;35.39
21401;BME280;18038;50.166;18.908;2022-09-09T13:54:14;97833.78;;;23.69;35.64
21401;BME280;18038;50.166;18.908;2022-09-09T13:57:26;97833.41;;;23.47;35.89
21401;BME280;18038;50.166;18.908;2022-09-09T14:00:38;97841.06;;;23.00;35.56
21401;BME280;18038;50.166;18.908;2022-09-09T14:03:50;97836.78;;;22.84;35.62
21401;BME280;18038;50.166;18.908;2022-09-09T14:06:58;97830.56;;;22.73;35.31
21401;BME280;18038;50.166;18.908;2022-09-09T14:10:05;97828.66;;;22.74;36.55
21401;BME280;18038;50.166;18.908;2022-09-09T14:13:13;97828.63;;;22.84;35.90
21401;BME280;18038;50.166;18.908;2022-09-09T14:16:24;97824.88;;;22.70;37.87
21401;BME280;18038;50.166;18.908;2022-09-09T14:19:31;97827.59;;;22.64;36.18
21401;BME280;18038;50.166;18.908;2022-09-09T14:22:39;97825.34;;;22.77;35.95
21401;BME280;18038;50.166;18.908;2022-09-09T14:25:46;97825.09;;;22.78;36.58
21401;BME280;18038;50.166;18.908;2022-09-09T14:28:51;97816.00;;;22.33;38.01
21401;BME280;18038;50.166;18.908;2022-09-09T14:31:57;97812.44;;;22.43;37.50
21401;BME280;18038;50.166;18.908;2022-09-09T14:35:11;97818.94;;;22.52;38.64
21401;BME280;18038;50.166;18.908;2022-09-09T14:38:20;97816.41;;;22.66;38.90
21401;BME280;18038;50.166;18.908;2022-09-09T14:41:25;97824.59;;;22.61;38.13
21401;BME280;18038;50.166;18.908;2022-09-09T14:44:31;97815.63;;;22.60;38.12
21401;BME280;18038;50.166;18.908;2022-09-09T14:47:38;97822.69;;;22.61;38.15
21401;BME280;18038;50.166;18.908;2022-09-09T14:50:43;97824.94;;;22.49;39.50
21401;BME280;18038;50.166;18.908;2022-09-09T14:53:55;97812.16;;;22.50;38.67
21401;BME280;18038;50.166;18.908;2022-09-09T14:57:02;97812.38;;;22.53;37.89
21401;BME280;18038;50.166;18.908;2022-09-09T15:00:10;97812.94;;;22.50;38.40
21401;BME280;18038;50.166;18.908;2022-09-09T15:03:17;97806.44;;;22.51;37.84
21401;BME280;18038;50.166;18.908;2022-09-09T15:06:30;97811.28;;;22.59;38.67
21401;BME280;18038;50.166;18.908;2022-09-09T15:09:41;97813.56;;;22.32;39.69
21401;BME280;18038;50.166;18.908;2022-09-09T15:12:47;97824.44;;;22.37;40.42
21401;BME280;18038;50.166;18.908;2022-09-09T15:15:54;97823.38;;;22.28;38.72
21401;BME280;18038;50.166;18.908;2022-09-09T15:19:02;97822.28;;;22.23;39.68
21401;BME280;18038;50.166;18.908;2022-09-09T15:22:08;97819.03;;;22.11;39.04
21401;BME280;18038;50.166;18.908;2022-09-09T15:25:16;97823.16;;;21.93;39.43
21401;BME280;18038;50.166;18.908;2022-09-09T15:28:24;97823.41;;;21.87;40.21
21401;BME280;18038;50.166;18.908;2022-09-09T15:31:31;97810.38;;;21.58;40.42
21401;BME280;18038;50.166;18.908;2022-09-09T15:34:36;97813.91;;;21.33;40.72
21401;BME280;18038;50.166;18.908;2022-09-09T15:37:42;97822.28;;;21.21;42.05
21401;BME280;18038;50.166;18.908;2022-09-09T15:40:55;97824.72;;;21.07;42.68
21401;BME280;18038;50.166;18.908;2022-09-09T15:44:02;97829.31;;;21.02;42.44
21401;BME280;18038;50.166;18.908;2022-09-09T15:47:10;97839.09;;;20.92;42.99
21401;BME280;18038;50.166;18.908;2022-09-09T15:50:18;97836.88;;;20.89;43.55
21401;BME280;18038;50.166;18.908;2022-09-09T15:53:24;97835.25;;;20.83;43.70
21401;BME280;18038;50.166;18.908;2022-09-09T15:56:32;97822.94;;;20.65;44.59
21401;BME280;18038;50.166;18.908;2022-09-09T15:59:38;97828.06;;;20.57;44.34
21401;BME280;18038;50.166;18.908;2022-09-09T16:02:46;97816.31;;;20.41;44.00
21401;BME280;18038;50.166;18.908;2022-09-09T16:05:52;97813.84;;;20.29;45.10
21401;BME280;18038;50.166;18.908;2022-09-09T16:08:58;97813.84;;;20.29;45.70
21401;BME280;18038;50.166;18.908;2022-09-09T16:12:07;97820.84;;;20.25;45.80
21401;BME280;18038;50.166;18.908;2022-09-09T16:15:15;97819.47;;;20.17;46.13
21401;BME280;18038;50.166;18.908;2022-09-09T16:18:35;97808.56;;;20.07;46.93
21401;BME280;18038;50.166;18.908;2022-09-09T16:21:43;97804.41;;;19.94;46.67
21401;BME280;18038;50.166;18.908;2022-09-09T16:24:52;97799.41;;;19.81;47.39
21401;BME280;18038;50.166;18.908;2022-09-09T16:28:01;97794.22;;;19.74;47.66
21401;BME280;18038;50.166;18.908;2022-09-09T16:31:09;97799.41;;;19.76;47.82
21401;BME280;18038;50.166;18.908;2022-09-09T16:34:18;97804.78;;;19.71;48.27
21401;BME280;18038;50.166;18.908;2022-09-09T16:37:25;97805.59;;;19.71;48.56
21401;BME280;18038;50.166;18.908;2022-09-09T16:40:33;97804.19;;;19.64;48.90
21401;BME280;18038;50.166;18.908;2022-09-09T16:43:41;97795.97;;;19.53;49.50
21401;BME280;18038;50.166;18.908;2022-09-09T16:46:48;97800.78;;;19.46;50.69
21401;BME280;18038;50.166;18.908;2022-09-09T16:50:05;97803.16;;;19.37;51.88